Time;durP1;ratioP1;P1;durP2;ratioP2;P2;SDS_P1;SDS_P2;PMS_P1;PMS_P2;Temp;Humidity;BMP_temperature;BMP_pressure;BME280_temperature;BME280_humidity;BME280_pressure;Samples;Min_cycle;Max_cycle;Signal;HPM_P1;HPM_P2
2021/09/08 00:01:20;;;;;;;;;;;;;;;;;;10417606;28;20383;-76
2021/09/08 00:06:21;;;;;;;;;;;;;;;;;;10401225;28;19921;-76
2021/09/08 00:11:22;;;;;;;;;;;;;;;;;;10419123;28;19914;-77
2021/09/08 00:16:24;;;;;;;;;;;;;;;;;;10417634;28;19917;-76
2021/09/08 00:21:25;;;;;;;;;;;;;;;;;;10419415;28;19916;-75
2021/09/08 00:26:27;;;;;;;;;;;;;;;;;;10350653;28;19922;-75
2021/09/08 00:31:28;;;;;;;;;;;;;;;;;;10376847;28;19956;-76
2021/09/08 00:36:29;;;;;;;;;;;;;;;;;;10375558;28;19924;-76
2021/09/08 00:41:31;;;;;;;;;;;;;;;;;;10375375;28;19961;-75
2021/09/08 00:46:32;;;;;;;;;;;;;;;;;;10376639;28;19914;-74
2021/09/08 00:51:33;;;;;;;;;;;;;;;;;;10376976;28;19914;-73
2021/09/08 00:56:34;;;;;;;;;;;;;;;;;;10375657;28;19921;-74
2021/09/08 01:01:37;;;;;;;;;;;;;;;;;;10374269;28;19920;-74
2021/09/08 01:06:39;;;;;;;;;;;;;;;;;;10374682;28;19921;-75
2021/09/08 01:11:42;;;;;;;;;;;;;;;;;;10374238;28;19917;-74
2021/09/08 01:16:44;;;;;;;;;;;;;;;;;;10374858;28;19917;-77
2021/09/08 01:21:45;;;;;;;;;;;;;;;;;;10373997;28;19959;-75
2021/09/08 01:26:46;;;;;;;;;;;;;;;;;;10372753;28;19936;-76
2021/09/08 01:31:47;;;;;;;;;;;;;;;;;;10373744;28;19913;-76
2021/09/08 01:36:48;;;;;;;;;;;;;;;;;;10373861;28;19917;-74
2021/09/08 01:41:50;;;;;;;;;;;;;;;;;;10372228;28;19913;-74
2021/09/08 01:46:51;;;;;;;;;;;;;;;;;;10373028;28;20400;-76
2021/09/08 01:51:52;;;;;;;;;;;;;;;;;;10372979;28;19932;-76
2021/09/08 01:56:53;;;;;;;;;;;;;;;;;;10373408;28;19918;-76
2021/09/08 02:01:54;;;;;;;;;;;;;;;;;;10373891;28;19935;-76
2021/09/08 02:06:55;;;;;;;;;;;;;;;;;;10372620;28;19926;-74
2021/09/08 02:11:56;;;;;;;;;;;;;;;;;;10372569;28;19996;-76
2021/09/08 02:16:57;;;;;;;;;;;;;;;;;;10372669;28;19944;-77
2021/09/08 02:21:58;;;;;;;;;;;;;;;;;;10371547;28;19913;-75
2021/09/08 02:27:00;;;;;;;;;;;;;;;;;;10372243;28;19920;-75
2021/09/08 02:32:01;;;;;;;;;;;;;;;;;;10372132;28;20052;-74
2021/09/08 02:37:02;;;;;;;;;;;;;;;;;;10356814;28;20341;-75
2021/09/08 02:42:03;;;;;;;;;;;;;;;;;;10381216;28;19914;-75
2021/09/08 02:52:12;;;;;;;;;;;;;;;;;;10381281;28;20433;-76
2021/09/08 02:57:13;;;;;;;;;;;;;;;;;;10363812;28;19967;-76
2021/09/08 03:02:15;;;;;;;;;;;;;;;;;;10380933;28;19920;-76
2021/09/08 03:07:17;;;;;;;;;;;;;;;;;;10380231;28;19933;-76
2021/09/08 03:12:20;;;;;;;;;;;;;;;;;;10379331;28;19921;-77
2021/09/08 03:17:21;;;;;;;;;;;;;;;;;;10380737;28;19922;-76
2021/09/08 03:22:22;;;;;;;;;;;;;;;;;;10361903;28;20346;-73
2021/09/08 03:27:24;;;;;;;;;;;;;;;;;;10380137;28;20296;-76
2021/09/08 03:32:25;;;;;;;;;;;;;;;;;;10378603;28;19913;-76
2021/09/08 03:37:26;;;;;;;;;;;;;;;;;;10379650;28;19972;-74
2021/09/08 03:42:28;;;;;;;;;;;;;;;;;;10378719;28;19952;-75
2021/09/08 03:47:29;;;;;;;;;;;;;;;;;;10377332;28;19956;-74
2021/09/08 03:52:30;;;;;;;;;;;;;;;;;;10378474;28;19913;-76
2021/09/08 03:57:32;;;;;;;;;;;;;;;;;;10378916;28;19924;-76
2021/09/08 04:02:33;;;;;;;;;;;;;;;;;;10377661;28;19913;-75
2021/09/08 04:07:34;;;;;;;;;;;;;;;;;;10376956;28;20359;-76
2021/09/08 04:12:35;;;;;;;;;;;;;;;;;;10360712;28;19913;-76
2021/09/08 04:17:37;;;;;;;;;;;;;;;;;;10376892;28;20421;-76
2021/09/08 04:22:38;;;;;;;;;;;;;;;;;;10375734;28;19914;-74
2021/09/08 04:27:39;;;;;;;;;;;;;;;;;;10359653;28;19917;-76
2021/09/08 04:32:40;;;;;;;;;;;;;;;;;;10376860;28;19914;-76
2021/09/08 04:37:42;;;;;;;;;;;;;;;;;;10375705;28;20008;-74
2021/09/08 04:42:43;;;;;;;;;;;;;;;;;;10376657;28;20352;-76
2021/09/08 04:47:44;;;;;;;;;;;;;;;;;;10374416;28;19914;-76
2021/09/08 04:52:45;;;;;;;;;;;;;;;;;;10374902;28;19917;-76
2021/09/08 04:57:46;;;;;;;;;;;;;;;;;;10375039;28;19928;-77
2021/09/08 05:02:47;;;;;;;;;;;;;;;;;;10357031;28;19921;-76
2021/09/08 05:07:48;;;;;;;;;;;;;;;;;;10375937;28;20272;-74
2021/09/08 05:12:50;;;;;;;;;;;;;;;;;;10374871;28;19963;-75
2021/09/08 05:17:51;;;;;;;;;;;;;;;;;;10357167;28;20009;-76
2021/09/08 05:22:52;;;;;;;;;;;;;;;;;;10374319;28;20276;-75
2021/09/08 05:27:53;;;;;;;;;;;;;;;;;;10373891;28;19913;-77
2021/09/08 05:32:55;;;;;;;;;;;;;;;;;;10392512;28;19924;-76
2021/09/08 05:37:56;;;;;;;;;;;;;;;;;;10397813;28;19944;-77
2021/09/08 05:42:57;;;;;;;;;;;;;;;;;;10414047;28;19920;-76
2021/09/08 05:47:58;;;;;;;;;;;;;;;;;;10414449;28;19920;-77
2021/09/08 05:53:02;;;;;;;;;;;;;;;;;;10414033;28;20273;-78
2021/09/08 05:58:04;;;;;;;;;;;;;;;;;;10376934;28;19997;-76
2021/09/08 06:03:05;;;;;;;;;;;;;;;;;;10369108;28;20057;-79
2021/09/08 06:08:06;;;;;;;;;;;;;;;;;;10370188;28;19921;-75
2021/09/08 06:13:07;;;;;;;;;;;;;;;;;;10369186;28;19921;-78
2021/09/08 06:18:08;;;;;;;;;;;;;;;;;;10354300;28;19913;-77
2021/09/08 06:23:11;;;;;;;;;;;;;;;;;;10372426;28;19913;-77
2021/09/08 06:28:12;;;;;;;;;;;;;;;;;;10371247;28;20437;-77
2021/09/08 06:33:13;;;;;;;;;;;;;;;;;;10354478;28;19913;-77
2021/09/08 06:38:15;;;;;;;;;;;;;;;;;;10370806;28;19913;-77
2021/09/08 06:43:16;;;;;;;;;;;;;;;;;;10371097;28;19918;-76
2021/09/08 06:48:20;;;;;;;;;;;;;;;;;;10371351;28;19961;-78
2021/09/08 06:53:21;;;;;;;;;;;;;;;;;;10362813;28;19917;-79
2021/09/08 06:58:22;;;;;;;;;;;;;;;;;;10362218;28;19928;-79
2021/09/08 07:03:23;;;;;;;;;;;;;;;;;;10365441;28;19922;-78
2021/09/08 07:08:24;;;;;;;;;;;;;;;;;;10365161;28;20329;-79
2021/09/08 07:13:25;;;;;;;;;;;;;;;;;;10360530;28;19917;-77
2021/09/08 07:18:26;;;;;;;;;;;;;;;;;;10364121;28;20443;-77
2021/09/08 07:23:28;;;;;;;;;;;;;;;;;;10367376;28;19952;-78
2021/09/08 07:28:29;;;;;;;;;;;;;;;;;;10368882;28;19917;-77
2021/09/08 07:33:30;;;;;;;;;;;;;;;;;;10372515;28;19917;-78
2021/09/08 07:38:32;;;;;;;;;;;;;;;;;;10371107;28;19961;-77
2021/09/08 07:43:33;;;;;;;;;;;;;;;;;;10370778;28;19918;-78
2021/09/08 07:48:34;;;;;;;;;;;;;;;;;;10373480;28;20329;-76
2021/09/08 07:53:35;;;;;;;;;;;;;;;;;;10373902;28;20020;-78
2021/09/08 07:58:37;;;;;;;;;;;;;;;;;;10374628;28;20597;-76
2021/09/08 08:03:38;;;;;;;;;;;;;;;;;;10371350;28;19925;-76
2021/09/08 08:08:39;;;;;;;;;;;;;;;;;;10371261;28;19968;-76
2021/09/08 08:13:40;;;;;;;;;;;;;;;;;;10368097;28;19995;-75
2021/09/08 08:18:41;;;;;;;;;;;;;;;;;;10371255;28;19914;-76
2021/09/08 08:23:42;;;;;;;;;;;;;;;;;;10374007;28;19917;-75
2021/09/08 08:28:44;;;;;;;;;;;;;;;;;;10368624;28;19978;-77
2021/09/08 08:33:49;;;;;;;;;;;;;;;;;;10375327;28;20028;-77
2021/09/08 08:38:51;;;;;;;;;;;;;;;;;;10368127;28;19925;-76
2021/09/08 08:43:52;;;;;;;;;;;;;;;;;;10369534;28;19917;-77
2021/09/08 08:48:53;;;;;;;;;;;;;;;;;;10371569;28;20052;-76
2021/09/08 08:53:55;;;;;;;;;;;;;;;;;;10369749;28;19926;-77
2021/09/08 08:58:56;;;;;;;;;;;;;;;;;;10370268;28;20320;-76
2021/09/08 09:03:57;;;;;;;;;;;;;;;;;;10369479;28;19979;-76
2021/09/08 09:08:58;;;;;;;;;;;;;;;;;;10370435;28;20369;-76
2021/09/08 09:13:59;;;;;;;;;;;;;;;;;;10366821;28;20362;-77
2021/09/08 09:19:00;;;;;;;;;;;;;;;;;;10373289;28;19914;-76
2021/09/08 09:24:01;;;;;;;;;;;;;;;;;;10367674;28;19924;-75
2021/09/08 09:29:02;;;;;;;;;;;;;;;;;;10369549;28;20365;-75
2021/09/08 09:34:03;;;;;;;;;;;;;;;;;;10369409;28;20285;-76
2021/09/08 09:39:04;;;;;;;;;;;;;;;;;;10371606;28;20301;-76
2021/09/08 09:44:06;;;;;;;;;;;;;;;;;;10371293;28;19917;-76
2021/09/08 09:49:07;;;;;;;;;;;;;;;;;;10374514;28;20359;-78
2021/09/08 09:54:08;;;;;;;;;;;;;;;;;;10373078;28;20297;-76
2021/09/08 09:59:09;;;;;;;;;;;;;;;;;;10373148;28;19921;-77
2021/09/08 10:04:11;;;;;;;;;;;;;;;;;;10374587;28;19921;-76
2021/09/08 10:09:13;;;;;;;;;;;;;;;;;;10372051;28;19951;-76
2021/09/08 10:14:16;;;;;;;;;;;;;;;;;;10370378;28;19918;-76
2021/09/08 10:19:17;;;;;;;;;;;;;;;;;;10371599;28;20498;-77
2021/09/08 10:24:18;;;;;;;;;;;;;;;;;;10373476;28;20281;-76
2021/09/08 10:29:19;;;;;;;;;;;;;;;;;;10372789;28;20009;-77
2021/09/08 10:34:21;;;;;;;;;;;;;;;;;;10373061;28;19913;-76
2021/09/08 10:39:22;;;;;;;;;;;;;;;;;;10372459;28;20000;-75
2021/09/08 10:44:24;;;;;;;;;;;;;;;;;;10372616;28;19913;-75
2021/09/08 10:49:25;;;;;;;;;;;;;;;;;;10371948;28;20332;-76
2021/09/08 10:54:26;;;;;;;;;;;;;;;;;;10372648;28;19944;-76
2021/09/08 10:59:28;;;;;;;;;;;;;;;;;;10374895;28;19913;-76
2021/09/08 11:04:29;;;;;;;;;;;;;;;;;;10508955;22;20022;-75
2021/09/08 11:09:30;;;;;;;;;;;;;;;;;;10462740;28;19964;-76
2021/09/08 11:14:32;;;;;;;;;;;;;;;;;;10461154;28;19949;-74
2021/09/08 11:19:33;;;;;;;;;;;;;;;;;;10461053;28;19920;-77
2021/09/08 11:24:34;;;;;;;;;;;;;;;;;;10461957;28;20360;-76
2021/09/08 11:29:36;;;;;;;;;;;;;;;;;;10460684;28;19924;-77
2021/09/08 11:34:38;;;;;;;;;;;;;;;;;;10434587;28;20300;-75
2021/09/08 11:39:39;;;;;;;;;;;;;;;;;;10416688;28;19913;-76
2021/09/08 11:44:41;;;;;;;;;;;;;;;;;;10418208;28;19917;-75
2021/09/08 11:49:42;;;;;;;;;;;;;;;;;;10418447;28;19917;-75
2021/09/08 11:54:43;;;;;;;;;;;;;;;;;;10419277;28;19913;-74
2021/09/08 11:59:44;;;;;;;;;;;;;;;;;;10418843;28;19921;-76
2021/09/08 12:04:45;;;;;;;;;;;;;;;;;;10416730;28;19920;-76
2021/09/08 12:09:46;;;;;;;;;;;;;;;;;;10416603;28;20339;-75
2021/09/08 12:14:48;;;;;;;;;;;;;;;;;;10416660;28;19913;-77
2021/09/08 12:19:49;;;;;;;;;;;;;;;;;;10417152;28;20353;-77
2021/09/08 12:24:52;;;;;;;;;;;;;;;;;;10418419;28;19969;-75
2021/09/08 12:29:53;;;;;;;;;;;;;;;;;;10423374;28;19925;-78
2021/09/08 12:34:54;;;;;;;;;;;;;;;;;;10420932;28;19917;-78
2021/09/08 12:39:58;;;;;;;;;;;;;;;;;;10420865;28;19920;-76
2021/09/08 12:44:59;;;;;;;;;;;;;;;;;;10401192;28;19913;-76
2021/09/08 12:50:00;;;;;;;;;;;;;;;;;;10417976;28;19936;-78
2021/09/08 12:55:01;;;;;;;;;;;;;;;;;;10400330;28;19913;-76
2021/09/08 13:00:03;;;;;;;;;;;;;;;;;;10415856;28;20576;-77
2021/09/08 13:05:06;;;;;;;;;;;;;;;;;;10429359;28;20016;-76
2021/09/08 13:10:07;;;;;;;;;;;;;;;;;;10416350;28;19967;-77
2021/09/08 13:15:08;;;;;;;;;;;;;;;;;;10384731;28;19952;-77
2021/09/08 13:20:10;;;;;;;;;;;;;;;;;;10371388;28;20020;-76
2021/09/08 13:25:11;;;;;;;;;;;;;;;;;;10370556;28;19921;-78
2021/09/08 13:30:12;;;;;;;;;;;;;;;;;;10411746;28;19963;-78
2021/09/08 13:35:13;;;;;;;;;;;;;;;;;;10411075;28;20060;-77
2021/09/08 13:40:15;;;;;;;;;;;;;;;;;;10412225;28;19917;-75
2021/09/08 13:45:16;;;;;;;;;;;;;;;;;;10411351;28;20000;-75
2021/09/08 13:50:17;;;;;;;;;;;;;;;;;;10407896;28;19924;-76
2021/09/08 13:55:19;;;;;;;;;;;;;;;;;;10410300;28;19917;-77
2021/09/08 14:00:20;;;;;;;;;;;;;;;;;;10410096;28;19917;-75
2021/09/08 14:05:22;;;;;;;;;;;;;;;;;;10409257;28;19974;-75
2021/09/08 14:10:23;;;;;;;;;;;;;;;;;;10411067;28;19913;-77
2021/09/08 14:15:24;;;;;;;;;;;;;;;;;;10410673;28;20339;-75
2021/09/08 14:20:25;;;;;;;;;;;;;;;;;;10391939;28;20008;-77
2021/09/08 14:25:27;;;;;;;;;;;;;;;;;;10401220;28;19967;-75
2021/09/08 14:30:32;;;;;;;;;;;;;;;;;;10392207;28;20376;-73
2021/09/08 14:35:33;;;;;;;;;;;;;;;;;;10410363;28;20008;-76
2021/09/08 14:40:34;;;;;;;;;;;;;;;;;;10413486;28;19921;-73
2021/09/08 14:45:35;;;;;;;;;;;;;;;;;;10421318;28;20280;-74
2021/09/08 14:50:36;;;;;;;;;;;;;;;;;;10420957;28;19913;-75
2021/09/08 14:55:39;;;;;;;;;;;;;;;;;;10421392;28;19956;-73
2021/09/08 15:00:42;;;;;;;;;;;;;;;;;;10394186;28;19971;-76
2021/09/08 15:05:43;;;;;;;;;;;;;;;;;;10377027;28;19932;-74
2021/09/08 15:10:44;;;;;;;;;;;;;;;;;;10387789;28;19992;-75
2021/09/08 15:15:46;;;;;;;;;;;;;;;;;;10421141;28;20364;-74
2021/09/08 15:20:56;;;;;;;;;;;;;;;;;;10420698;28;20257;-75
2021/09/08 15:25:58;;;;;;;;;;;;;;;;;;10420036;28;19921;-74
2021/09/08 15:31:01;;;;;;;;;;;;;;;;;;10420216;28;19913;-73
2021/09/08 15:36:02;;;;;;;;;;;;;;;;;;10408119;28;19921;-74
2021/09/08 15:41:03;;;;;;;;;;;;;;;;;;10378661;28;20254;-74
2021/09/08 15:46:04;;;;;;;;;;;;;;;;;;10395697;28;19921;-76
2021/09/08 15:51:05;;;;;;;;;;;;;;;;;;10418041;28;20303;-73
2021/09/08 15:56:06;;;;;;;;;;;;;;;;;;10401745;28;19952;-75
2021/09/08 16:01:07;;;;;;;;;;;;;;;;;;10419498;28;19952;-74
2021/09/08 16:06:09;;;;;;;;;;;;;;;;;;10418210;28;19990;-74
2021/09/08 16:11:10;;;;;;;;;;;;;;;;;;10417828;28;19952;-75
2021/09/08 16:16:11;;;;;;;;;;;;;;;;;;10417772;28;19952;-74
2021/09/08 16:21:14;;;;;;;;;;;;;;;;;;10417931;28;20210;-74
2021/09/08 16:26:15;;;;;;;;;;;;;;;;;;10418401;28;19940;-75
2021/09/08 16:31:16;;;;;;;;;;;;;;;;;;10394725;28;19920;-74
2021/09/08 16:36:18;;;;;;;;;;;;;;;;;;10372451;28;19988;-74
2021/09/08 16:41:19;;;;;;;;;;;;;;;;;;10382578;28;19979;-75
2021/09/08 16:46:20;;;;;;;;;;;;;;;;;;10407310;28;19924;-74
2021/09/08 16:51:21;;;;;;;;;;;;;;;;;;10415743;28;19914;-73
2021/09/08 16:56:23;;;;;;;;;;;;;;;;;;10415578;28;20304;-74
2021/09/08 17:01:24;;;;;;;;;;;;;;;;;;10417043;28;20382;-75
2021/09/08 17:06:25;;;;;;;;;;;;;;;;;;10417311;28;19921;-74
2021/09/08 17:11:26;;;;;;;;;;;;;;;;;;10415263;28;19913;-73
2021/09/08 17:16:27;;;;;;;;;;;;;;;;;;10375166;28;19920;-74
2021/09/08 17:21:28;;;;;;;;;;;;;;;;;;10371565;28;19920;-74
2021/09/08 17:26:29;;;;;;;;;;;;;;;;;;10371334;28;20289;-74
2021/09/08 17:31:30;;;;;;;;;;;;;;;;;;10370046;28;19959;-75
2021/09/08 17:36:34;;;;;;;;;;;;;;;;;;10369315;28;19921;-75
2021/09/08 17:41:39;;;;;;;;;;;;;;;;;;10373909;28;19957;-74
2021/09/08 17:46:40;;;;;;;;;;;;;;;;;;10373827;28;19925;-75
2021/09/08 17:51:43;;;;;;;;;;;;;;;;;;10374679;28;20317;-74
2021/09/08 17:56:45;;;;;;;;;;;;;;;;;;10357393;28;19956;-74
2021/09/08 18:01:47;;;;;;;;;;;;;;;;;;10374143;28;19913;-74
2021/09/08 18:06:49;;;;;;;;;;;;;;;;;;10372577;28;19971;-74
2021/09/08 18:11:52;;;;;;;;;;;;;;;;;;10372832;28;19920;-74
2021/09/08 18:16:54;;;;;;;;;;;;;;;;;;10373615;28;20020;-75
2021/09/08 18:22:00;;;;;;;;;;;;;;;;;;10374204;28;20190;-74
2021/09/08 18:27:02;;;;;;;;;;;;;;;;;;10372795;28;20324;-75
2021/09/08 18:32:06;;;;;;;;;;;;;;;;;;10373642;28;20008;-74
2021/09/08 18:37:11;;;;;;;;;;;;;;;;;;10373032;28;20349;-75
2021/09/08 18:42:15;;;;;;;;;;;;;;;;;;10371548;28;20012;-74
2021/09/08 18:47:17;;;;;;;;;;;;;;;;;;10368481;28;20343;-73
2021/09/08 18:52:19;;;;;;;;;;;;;;;;;;10366010;28;19921;-74
2021/09/08 18:57:21;;;;;;;;;;;;;;;;;;10369081;28;19979;-74
2021/09/08 19:02:23;;;;;;;;;;;;;;;;;;10377008;28;20016;-74
2021/09/08 19:07:26;;;;;;;;;;;;;;;;;;10378074;28;20360;-74
2021/09/08 19:12:27;;;;;;;;;;;;;;;;;;10383604;28;20415;-74
2021/09/08 19:17:29;;;;;;;;;;;;;;;;;;10412593;28;19924;-73
2021/09/08 19:22:31;;;;;;;;;;;;;;;;;;10418811;28;19975;-73
2021/09/08 19:27:32;;;;;;;;;;;;;;;;;;10421050;28;20001;-75
2021/09/08 19:32:39;;;;;;;;;;;;;;;;;;10419676;28;19919;-74
2021/09/08 19:37:42;;;;;;;;;;;;;;;;;;10417078;28;19913;-74
2021/09/08 19:42:43;;;;;;;;;;;;;;;;;;10394042;28;19956;-74
2021/09/08 19:47:44;;;;;;;;;;;;;;;;;;10390121;28;20423;-74
2021/09/08 19:52:46;;;;;;;;;;;;;;;;;;10381035;28;20480;-74
2021/09/08 19:57:48;;;;;;;;;;;;;;;;;;10404674;28;20000;-75
2021/09/08 20:02:49;;;;;;;;;;;;;;;;;;10398760;28;19922;-75
2021/09/08 20:07:51;;;;;;;;;;;;;;;;;;10390560;28;19928;-76
2021/09/08 20:12:52;;;;;;;;;;;;;;;;;;10397621;28;19961;-75
2021/09/08 20:17:54;;;;;;;;;;;;;;;;;;10372163;28;20261;-74
2021/09/08 20:22:56;;;;;;;;;;;;;;;;;;10373257;28;20591;-75
2021/09/08 20:27:57;;;;;;;;;;;;;;;;;;10381631;28;19924;-75
2021/09/08 20:32:59;;;;;;;;;;;;;;;;;;10388638;28;19917;-75
2021/09/08 20:38:02;;;;;;;;;;;;;;;;;;10386206;28;19917;-74
2021/09/08 20:43:04;;;;;;;;;;;;;;;;;;10393206;28;19917;-74
2021/09/08 20:48:06;;;;;;;;;;;;;;;;;;10397317;28;19927;-74
2021/09/08 20:53:08;;;;;;;;;;;;;;;;;;10391601;28;20570;-75
2021/09/08 20:58:11;;;;;;;;;;;;;;;;;;10393600;28;20307;-74
2021/09/08 21:03:12;;;;;;;;;;;;;;;;;;10390869;28;19922;-75
2021/09/08 21:08:14;;;;;;;;;;;;;;;;;;10397125;28;19921;-74
2021/09/08 21:13:17;;;;;;;;;;;;;;;;;;10394893;28;19913;-75
2021/09/08 21:18:40;;;;;;;;;;;;;;;;;;10394839;28;19913;-74
2021/09/08 21:23:41;;;;;;;;;;;;;;;;;;10396671;28;19914;-74
2021/09/08 21:28:44;;;;;;;;;;;;;;;;;;10397110;28;19924;-75
2021/09/08 21:33:45;;;;;;;;;;;;;;;;;;10392922;28;20381;-74
2021/09/08 21:38:46;;;;;;;;;;;;;;;;;;10398355;28;20422;-74
2021/09/08 21:43:48;;;;;;;;;;;;;;;;;;10393100;28;19913;-74
2021/09/08 21:48:50;;;;;;;;;;;;;;;;;;10395799;28;19917;-75
2021/09/08 21:53:52;;;;;;;;;;;;;;;;;;10392256;28;20385;-74
2021/09/08 21:58:54;;;;;;;;;;;;;;;;;;10393118;28;19968;-74
2021/09/08 22:03:55;;;;;;;;;;;;;;;;;;10394579;28;19928;-74
2021/09/08 22:08:56;;;;;;;;;;;;;;;;;;10392588;28;19967;-75
2021/09/08 22:13:57;;;;;;;;;;;;;;;;;;10411928;28;19913;-74
2021/09/08 22:18:58;;;;;;;;;;;;;;;;;;10395321;28;19917;-74
2021/09/08 22:24:00;;;;;;;;;;;;;;;;;;10412948;28;19913;-75
2021/09/08 22:29:02;;;;;;;;;;;;;;;;;;10412580;28;19917;-75
2021/09/08 22:34:03;;;;;;;;;;;;;;;;;;10414238;28;19935;-74
2021/09/08 22:39:04;;;;;;;;;;;;;;;;;;10414485;28;19920;-74
2021/09/08 22:44:05;;;;;;;;;;;;;;;;;;10396707;28;20341;-74
2021/09/08 22:49:07;;;;;;;;;;;;;;;;;;10412259;28;20234;-75
2021/09/08 22:54:08;;;;;;;;;;;;;;;;;;10416751;28;19909;-74
2021/09/08 22:59:09;;;;;;;;;;;;;;;;;;10422272;28;19913;-74
2021/09/08 23:04:11;;;;;;;;;;;;;;;;;;10498904;22;19948;-74
2021/09/08 23:09:15;;;;;;;;;;;;;;;;;;10373874;28;19918;-74
2021/09/08 23:14:17;;;;;;;;;;;;;;;;;;10379633;28;20032;-74
2021/09/08 23:19:19;;;;;;;;;;;;;;;;;;10378960;28;19913;-74
2021/09/08 23:24:20;;;;;;;;;;;;;;;;;;10378803;28;19913;-75
2021/09/08 23:29:22;;;;;;;;;;;;;;;;;;10379925;28;19917;-74
2021/09/08 23:34:24;;;;;;;;;;;;;;;;;;10379779;28;20000;-74
2021/09/08 23:39:27;;;;;;;;;;;;;;;;;;10378691;28;19952;-74
2021/09/08 23:44:28;;;;;;;;;;;;;;;;;;10378183;28;19961;-74
2021/09/08 23:49:29;;;;;;;;;;;;;;;;;;10379458;28;19917;-74
2021/09/08 23:54:31;;;;;;;;;;;;;;;;;;10377200;28;19924;-74
2021/09/08 23:59:33;;;;;;;;;;;;;;;;;;10378249;28;20415;-74
